Time;durP1;ratioP1;P1;durP2;ratioP2;P2;SDS_P1;SDS_P2;PMS_P1;PMS_P2;Temp;Humidity;BMP_temperature;BMP_pressure;BME280_temperature;BME280_humidity;BME280_pressure;Samples;Min_cycle;Max_cycle;Signal;HPM_P1;HPM_P2
2023/01/02 00:01:37;;;;;;;39.67;20.03;;;6.20;83.40;;;;;;5017692;28;20217;-78
2023/01/02 00:04:03;;;;;;;46.10;21.23;;;6.20;83.70;;;;;;5014997;28;20189;-78
2023/01/02 00:06:35;;;;;;;34.37;19.57;;;6.20;83.40;;;;;;5005314;28;20184;-77
2023/01/02 00:09:03;;;;;;;37.90;20.43;;;6.20;83.80;;;;;;5008890;28;20236;-77
2023/01/02 00:11:28;;;;;;;32.83;18.30;;;6.20;84.00;;;;;;5009373;28;20189;-77
2023/01/02 00:13:54;;;;;;;35.40;16.73;;;6.10;84.00;;;;;;5010907;28;20203;-78
2023/01/02 00:16:20;;;;;;;32.17;16.60;;;6.10;83.80;;;;;;5011138;28;20626;-78
2023/01/02 00:18:46;;;;;;;30.10;15.77;;;6.10;83.50;;;;;;5009798;28;20184;-78
2023/01/02 00:21:11;;;;;;;36.93;17.50;;;6.10;84.00;;;;;;5006402;28;20218;-77
2023/01/02 00:23:37;;;;;;;28.43;15.57;;;6.10;84.00;;;;;;5003471;28;20694;-77
2023/01/02 00:26:03;;;;;;;28.00;15.07;;;6.00;83.50;;;;;;5009006;28;20251;-77
2023/01/02 00:28:29;;;;;;;34.40;17.80;;;6.00;83.30;;;;;;5008429;28;20621;-77
2023/01/02 00:30:55;;;;;;;38.73;19.23;;;6.00;83.70;;;;;;4998159;28;20182;-77
2023/01/02 00:33:21;;;;;;;41.00;17.67;;;6.00;83.50;;;;;;5008198;28;20173;-77
2023/01/02 00:35:47;;;;;;;29.00;17.47;;;5.90;83.10;;;;;;5007815;28;20567;-78
2023/01/02 00:38:13;;;;;;;40.13;20.23;;;5.90;83.10;;;;;;5007216;28;20261;-77
2023/01/02 00:40:39;;;;;;;44.27;20.37;;;5.90;83.50;;;;;;5005462;28;20182;-78
2023/01/02 00:43:04;;;;;;;39.53;20.60;;;5.90;83.70;;;;;;5007085;28;20173;-78
2023/01/02 00:45:30;;;;;;;45.40;19.47;;;5.90;83.90;;;;;;5005280;28;20192;-78
2023/01/02 00:47:56;;;;;;;35.43;19.90;;;5.90;83.80;;;;;;5002342;28;20185;-78
2023/01/02 00:50:21;;;;;;;43.23;19.73;;;5.90;84.00;;;;;;5006771;28;20275;-77
2023/01/02 00:52:47;;;;;;;41.23;19.03;;;5.90;83.90;;;;;;5011947;28;20193;-77
2023/01/02 00:55:13;;;;;;;41.30;20.40;;;5.90;83.90;;;;;;5018564;28;20263;-77
2023/01/02 00:57:38;;;;;;;42.87;21.03;;;5.90;83.80;;;;;;5015055;28;20573;-78
2023/01/02 01:00:06;;;;;;;34.83;20.07;;;5.90;83.90;;;;;;5006597;28;20189;-77
2023/01/02 01:02:32;;;;;;;40.83;21.37;;;5.90;84.50;;;;;;5002214;28;20216;-78
2023/01/02 01:04:57;;;;;;;52.27;22.27;;;5.80;84.40;;;;;;5015144;28;20205;-79
2023/01/02 01:07:23;;;;;;;46.17;21.50;;;5.80;84.40;;;;;;5007639;28;20636;-78
2023/01/02 01:09:49;;;;;;;36.00;20.37;;;5.80;84.30;;;;;;5009574;28;20191;-79
2023/01/02 01:12:14;;;;;;;42.80;21.23;;;5.70;84.50;;;;;;5011534;28;20188;-78
2023/01/02 01:14:40;;;;;;;45.40;21.37;;;5.70;84.30;;;;;;5015540;28;20185;-78
2023/01/02 01:17:06;;;;;;;42.57;20.07;;;5.70;84.40;;;;;;5001925;28;20631;-78
2023/01/02 01:19:33;;;;;;;44.13;22.90;;;5.70;84.30;;;;;;5008718;28;20184;-79
2023/01/02 01:21:59;;;;;;;31.73;19.20;;;5.70;84.50;;;;;;5008168;28;20247;-78
2023/01/02 01:24:25;;;;;;;37.17;20.87;;;5.70;84.80;;;;;;5007290;28;20204;-77
2023/01/02 01:26:51;;;;;;;57.33;24.27;;;5.70;85.30;;;;;;5007821;28;20181;-78
2023/01/02 01:29:16;;;;;;;64.97;26.27;;;5.70;85.40;;;;;;5008450;28;20196;-78
2023/01/02 01:31:42;;;;;;;50.67;25.40;;;5.70;85.40;;;;;;5008641;28;20219;-78
2023/01/02 01:34:10;;;;;;;54.27;23.77;;;5.70;85.50;;;;;;5005769;28;20740;-78
2023/01/02 01:36:36;;;;;;;52.30;26.30;;;5.60;85.70;;;;;;5011466;28;20173;-78
2023/01/02 01:39:02;;;;;;;49.70;23.93;;;5.60;85.50;;;;;;4997563;28;20185;-78
2023/01/02 01:41:28;;;;;;;49.77;24.93;;;5.60;85.90;;;;;;5005961;28;20215;-78
2023/01/02 01:43:56;;;;;;;55.80;25.67;;;5.50;85.80;;;;;;5004342;28;20181;-78
2023/01/02 01:46:31;;;;;;;42.57;22.77;;;5.50;85.50;;;;;;5014494;28;20177;-78
2023/01/02 01:49:23;;;;;;;50.73;21.60;;;5.50;85.70;;;;;;5003637;28;20181;-78
2023/01/02 01:52:03;;;;;;;40.43;20.13;;;5.40;86.40;;;;;;4943277;28;20203;-78
2023/01/02 01:54:43;;;;;;;50.70;21.70;;;5.40;86.80;;;;;;4944108;28;20224;-77
2023/01/02 01:57:19;;;;;;;51.27;23.50;;;5.40;87.70;;;;;;4946944;28;20585;-78
2023/01/02 01:59:46;;;;;;;42.70;22.23;;;5.40;87.50;;;;;;4947602;28;20719;-77
2023/01/02 02:02:12;;;;;;;40.37;20.53;;;5.40;88.00;;;;;;4947255;28;20314;-78
2023/01/02 02:04:38;;;;;;;36.50;18.20;;;5.30;88.10;;;;;;4945351;28;20289;-78
2023/01/02 02:07:04;;;;;;;24.13;14.13;;;5.30;88.20;;;;;;4948742;29;20182;-78
2023/01/02 02:09:57;;;;;;;28.30;15.43;;;5.10;87.80;;;;;;4947651;28;20199;-77
2023/01/02 02:12:22;;;;;;;26.53;15.97;;;5.20;88.10;;;;;;4949115;28;20207;-78
2023/01/02 02:14:48;;;;;;;31.43;16.20;;;5.20;88.10;;;;;;4951978;28;20187;-78
2023/01/02 02:17:44;;;;;;;32.17;15.67;;;5.20;88.20;;;;;;4953114;28;20191;-78
2023/01/02 02:20:18;;;;;;;29.00;14.33;;;5.10;87.60;;;;;;4950204;28;20995;-78
2023/01/02 02:23:01;;;;;;;20.37;12.87;;;5.00;87.30;;;;;;4950366;28;20231;-78
2023/01/02 02:26:02;;;;;;;29.20;14.13;;;5.10;87.40;;;;;;4950975;28;20383;-77
2023/01/02 02:28:47;;;;;;;25.80;12.07;;;5.10;87.30;;;;;;4962897;28;20661;-78
2023/01/02 02:31:31;;;;;;;25.27;12.33;;;5.10;87.30;;;;;;5010035;28;20213;-78
2023/01/02 02:33:59;;;;;;;21.77;10.93;;;5.10;86.60;;;;;;5006604;28;20197;-78
2023/01/02 02:36:39;;;;;;;14.30;9.80;;;5.00;86.10;;;;;;5008596;28;20195;-78
2023/01/02 02:39:39;;;;;;;13.63;9.87;;;5.00;86.50;;;;;;5018938;28;20220;-78
2023/01/02 02:42:20;;;;;;;19.90;10.23;;;5.00;86.50;;;;;;5004940;28;20216;-78
2023/01/02 02:45:11;;;;;;;16.53;8.43;;;5.00;86.60;;;;;;5003127;28;20680;-78
2023/01/02 02:48:00;;;;;;;15.23;8.37;;;5.10;86.90;;;;;;4923598;29;20312;-78
2023/01/02 02:50:40;;;;;;;16.40;9.07;;;5.10;87.20;;;;;;4922451;29;20195;-78
2023/01/02 02:53:34;;;;;;;17.23;9.17;;;5.10;87.30;;;;;;4923787;29;20199;-78
2023/01/02 02:56:04;;;;;;;18.73;10.30;;;5.00;87.10;;;;;;4921590;29;20192;-78
2023/01/02 02:58:32;;;;;;;22.90;9.33;;;5.00;87.40;;;;;;4930299;29;20211;-77
2023/01/02 03:01:06;;;;;;;17.97;10.03;;;5.00;87.30;;;;;;4934738;28;20302;-77
2023/01/02 03:03:33;;;;;;;21.83;11.33;;;4.90;86.60;;;;;;4925652;29;20202;-78
2023/01/02 03:05:58;;;;;;;32.20;13.33;;;4.90;86.60;;;;;;4928571;29;20658;-78
2023/01/02 03:08:58;;;;;;;28.00;13.13;;;4.90;86.60;;;;;;4929836;29;20191;-78
2023/01/02 03:11:40;;;;;;;21.23;12.07;;;4.90;86.50;;;;;;4929570;29;20266;-78
2023/01/02 03:14:15;;;;;;;22.47;12.37;;;4.90;86.50;;;;;;4929606;29;20331;-77
2023/01/02 03:16:42;;;;;;;24.83;11.13;;;4.90;86.50;;;;;;4934961;28;20269;-78
2023/01/02 03:19:14;;;;;;;24.97;12.77;;;4.90;86.50;;;;;;4931769;29;20685;-78
2023/01/02 03:21:53;;;;;;;26.83;12.50;;;4.80;86.30;;;;;;4930049;29;20283;-77
2023/01/02 03:24:21;;;;;;;22.67;13.40;;;4.80;86.10;;;;;;4956454;28;20344;-78
2023/01/02 03:27:03;;;;;;;23.07;13.50;;;4.80;86.10;;;;;;5003758;28;20182;-78
2023/01/02 03:29:43;;;;;;;27.70;13.03;;;4.80;85.80;;;;;;5019498;28;20177;-77
2023/01/02 03:32:12;;;;;;;24.07;13.67;;;4.80;85.90;;;;;;5009482;28;20283;-77
2023/01/02 03:34:39;;;;;;;33.40;15.53;;;4.80;85.60;;;;;;5002258;28;20619;-78
2023/01/02 03:37:17;;;;;;;30.47;15.40;;;4.80;85.40;;;;;;5007600;28;20185;-78
2023/01/02 03:39:52;;;;;;;28.47;14.57;;;4.80;85.40;;;;;;5007443;28;20215;-77
2023/01/02 03:42:27;;;;;;;35.00;15.50;;;4.80;86.10;;;;;;5007631;28;20227;-77
2023/01/02 03:45:04;;;;;;;26.33;12.50;;;4.80;86.00;;;;;;5006164;28;20239;-77
2023/01/02 03:47:52;;;;;;;31.00;15.37;;;4.70;86.00;;;;;;5007394;28;20226;-77
2023/01/02 03:50:28;;;;;;;23.77;12.77;;;4.70;86.30;;;;;;5008547;28;20193;-78
2023/01/02 03:52:54;;;;;;;25.10;14.27;;;4.70;86.50;;;;;;5009332;28;20227;-77
2023/01/02 03:55:24;;;;;;;23.33;13.23;;;4.70;86.60;;;;;;5009174;28;20189;-77
2023/01/02 03:58:08;;;;;;;31.73;13.43;;;4.70;86.70;;;;;;5009209;28;20176;-78
2023/01/02 04:00:42;;;;;;;25.70;13.73;;;4.70;86.80;;;;;;5005330;28;20181;-78
2023/01/02 04:03:14;;;;;;;27.47;14.57;;;4.60;86.60;;;;;;5007396;28;20692;-78
2023/01/02 04:05:46;;;;;;;30.70;15.17;;;4.60;86.70;;;;;;5005954;28;20835;-78
2023/01/02 04:08:45;;;;;;;29.30;15.37;;;4.60;86.80;;;;;;5007228;28;20189;-78
2023/01/02 04:11:15;;;;;;;44.27;17.10;;;4.50;86.80;;;;;;5006234;28;20464;-77
2023/01/02 04:13:52;;;;;;;29.50;15.43;;;4.50;87.10;;;;;;5005845;28;20204;-77
2023/01/02 04:16:22;;;;;;;31.47;15.07;;;4.50;86.90;;;;;;5007921;28;20192;-77
2023/01/02 04:19:00;;;;;;;30.13;16.37;;;4.50;87.10;;;;;;5002495;28;20216;-78
2023/01/02 04:21:30;;;;;;;38.07;17.53;;;4.40;87.00;;;;;;5007443;28;20208;-77
2023/01/02 04:24:15;;;;;;;30.03;17.83;;;4.40;87.10;;;;;;5006825;28;20745;-77
2023/01/02 04:26:49;;;;;;;41.90;16.57;;;4.40;87.00;;;;;;4994981;28;20251;-77
2023/01/02 04:29:15;;;;;;;39.10;18.10;;;4.40;86.80;;;;;;5005297;28;20184;-78
2023/01/02 04:32:09;;;;;;;35.67;17.57;;;4.40;86.80;;;;;;5007780;28;20200;-78
2023/01/02 04:34:37;;;;;;;28.57;16.40;;;4.40;86.60;;;;;;5007650;28;20564;-77
2023/01/02 04:37:03;;;;;;;35.27;16.80;;;4.40;87.10;;;;;;5004443;28;20261;-77
2023/01/02 04:39:29;;;;;;;30.17;15.87;;;4.40;86.70;;;;;;5004321;28;20552;-78
2023/01/02 04:41:54;;;;;;;29.40;16.60;;;4.40;87.00;;;;;;4997681;28;20201;-78
2023/01/02 04:44:20;;;;;;;32.57;15.97;;;4.30;86.90;;;;;;5013263;28;20212;-78
2023/01/02 04:46:46;;;;;;;32.63;15.97;;;4.30;86.80;;;;;;5007137;28;20176;-78
2023/01/02 04:49:11;;;;;;;35.47;17.40;;;4.30;86.90;;;;;;5004988;28;20181;-78
2023/01/02 04:51:37;;;;;;;33.70;18.27;;;4.30;86.80;;;;;;5006316;28;20199;-78
2023/01/02 04:54:03;;;;;;;34.97;18.37;;;4.30;87.00;;;;;;5005857;28;20556;-78
2023/01/02 04:56:29;;;;;;;42.47;19.80;;;4.30;86.90;;;;;;5007372;28;20209;-77
2023/01/02 04:58:54;;;;;;;44.03;20.37;;;4.30;87.00;;;;;;5017050;28;20180;-78
2023/01/02 05:01:20;;;;;;;38.40;19.57;;;4.30;86.70;;;;;;5017847;28;20216;-77
2023/01/02 05:03:48;;;;;;;33.07;18.93;;;4.30;86.90;;;;;;5000825;28;20177;-78
2023/01/02 05:06:15;;;;;;;31.80;17.07;;;4.30;86.90;;;;;;5000519;28;20627;-78
2023/01/02 05:08:41;;;;;;;28.10;15.20;;;4.20;87.10;;;;;;4999970;28;20178;-77
2023/01/02 05:11:11;;;;;;;31.30;16.90;;;4.20;87.10;;;;;;4996021;28;20194;-78
2023/01/02 05:13:37;;;;;;;32.43;16.13;;;4.20;87.00;;;;;;5005299;28;20281;-78
2023/01/02 05:16:03;;;;;;;30.40;15.33;;;4.20;87.20;;;;;;5006226;28;20280;-77
2023/01/02 05:18:30;;;;;;;32.27;15.43;;;4.20;87.10;;;;;;5004692;28;20869;-77
2023/01/02 05:21:02;;;;;;;34.17;16.17;;;4.20;87.00;;;;;;5006761;28;20185;-78
2023/01/02 05:26:13;;;;;;;30.43;16.37;;;4.20;87.20;;;;;;5010815;28;20192;-78
2023/01/02 05:28:39;;;;;;;29.50;14.90;;;4.20;87.10;;;;;;5010239;28;20238;-77
2023/01/02 05:31:04;;;;;;;30.43;15.67;;;4.20;86.80;;;;;;5006299;28;20306;-78
2023/01/02 05:33:30;;;;;;;40.40;16.27;;;4.20;87.10;;;;;;4997354;28;20682;-78
2023/01/02 05:35:56;;;;;;;29.40;15.43;;;4.20;87.10;;;;;;4993754;28;20187;-78
2023/01/02 05:38:21;;;;;;;31.83;16.63;;;4.20;87.30;;;;;;4999053;28;20185;-77
2023/01/02 05:40:47;;;;;;;30.50;16.13;;;4.20;87.30;;;;;;5007362;28;20255;-77
2023/01/02 05:43:13;;;;;;;32.93;14.80;;;4.20;87.20;;;;;;5006593;28;20545;-78
2023/01/02 05:45:38;;;;;;;28.73;15.37;;;4.20;87.40;;;;;;5005215;28;20231;-77
2023/01/02 05:48:04;;;;;;;30.53;16.00;;;4.20;87.40;;;;;;5015978;28;20253;-77
2023/01/02 05:50:30;;;;;;;35.63;16.97;;;4.20;87.20;;;;;;5008756;28;20180;-79
2023/01/02 05:52:56;;;;;;;29.10;14.67;;;4.20;87.20;;;;;;5014665;28;20257;-78
2023/01/02 05:55:21;;;;;;;28.43;15.90;;;4.10;87.20;;;;;;5006111;28;20234;-78
2023/01/02 05:57:48;;;;;;;35.13;17.33;;;4.10;87.10;;;;;;5005186;28;20188;-77
2023/01/02 06:00:14;;;;;;;40.90;18.53;;;4.10;87.10;;;;;;5004861;28;20656;-77
2023/01/02 06:02:40;;;;;;;33.07;17.10;;;4.10;87.20;;;;;;5005448;28;20217;-78
2023/01/02 06:05:06;;;;;;;30.47;18.30;;;4.10;87.10;;;;;;5005748;28;20192;-78
2023/01/02 06:07:31;;;;;;;35.40;19.23;;;4.10;87.20;;;;;;5004845;28;20187;-77
2023/01/02 06:09:57;;;;;;;38.37;18.40;;;4.10;87.10;;;;;;5004773;28;20666;-78
2023/01/02 06:12:23;;;;;;;43.03;19.27;;;4.10;87.10;;;;;;5016974;28;20196;-78
2023/01/02 06:14:49;;;;;;;43.03;21.07;;;4.10;87.30;;;;;;5008644;28;20181;-77
2023/01/02 06:17:14;;;;;;;47.20;19.57;;;4.10;87.30;;;;;;5004269;28;20212;-78
2023/01/02 06:19:40;;;;;;;51.33;21.47;;;4.10;87.30;;;;;;5004896;28;20215;-78
2023/01/02 06:22:06;;;;;;;38.33;18.50;;;4.10;87.30;;;;;;5005626;28;20224;-77
2023/01/02 06:24:31;;;;;;;37.73;19.57;;;4.10;87.30;;;;;;5005290;28;20634;-77
2023/01/02 06:26:57;;;;;;;44.73;20.30;;;4.10;87.40;;;;;;5005269;28;20747;-77
2023/01/02 06:29:23;;;;;;;43.10;21.20;;;4.10;87.60;;;;;;4993413;28;20185;-77
2023/01/02 06:31:48;;;;;;;41.93;21.13;;;4.10;87.80;;;;;;5001379;28;20947;-78
2023/01/02 06:34:16;;;;;;;38.67;21.10;;;4.10;87.90;;;;;;5004800;28;20185;-76
2023/01/02 06:36:42;;;;;;;45.53;20.87;;;4.20;88.10;;;;;;5003333;28;20181;-77
2023/01/02 06:39:07;;;;;;;40.10;19.83;;;4.20;88.30;;;;;;5008498;28;20180;-78
2023/01/02 06:41:33;;;;;;;40.27;19.17;;;4.30;88.80;;;;;;5003918;28;20287;-79
2023/01/02 06:43:59;;;;;;;45.20;20.23;;;4.40;89.10;;;;;;5003830;28;20666;-78
2023/01/02 06:46:24;;;;;;;43.43;19.80;;;4.50;89.20;;;;;;5005421;28;20199;-77
2023/01/02 06:48:51;;;;;;;43.47;21.37;;;4.60;89.60;;;;;;5005167;28;20284;-77
2023/01/02 06:51:19;;;;;;;48.10;20.87;;;4.80;89.70;;;;;;4995315;28;20217;-78
2023/01/02 06:53:45;;;;;;;47.83;21.13;;;5.00;90.20;;;;;;5001761;28;20193;-78
2023/01/02 06:56:12;;;;;;;40.97;19.90;;;5.20;90.60;;;;;;5006622;28;20267;-78
2023/01/02 06:58:38;;;;;;;43.43;21.87;;;5.50;90.70;;;;;;5012237;28;20765;-77
2023/01/02 07:01:10;;;;;;;67.67;25.33;;;5.80;90.80;;;;;;5013918;28;20192;-77
2023/01/02 07:03:36;;;;;;;51.07;23.77;;;6.10;90.70;;;;;;5005603;28;20243;-78
2023/01/02 07:06:08;;;;;;;62.70;26.43;;;6.40;90.40;;;;;;5003703;28;20185;-78
2023/01/02 07:08:34;;;;;;;49.53;24.87;;;6.60;88.90;;;;;;5004940;28;20191;-78
2023/01/02 07:11:15;;;;;;;47.73;24.50;;;6.90;88.20;;;;;;5004759;28;20177;-77
2023/01/02 07:13:42;;;;;;;53.33;26.77;;;7.20;88.40;;;;;;5001732;28;20763;-78
2023/01/02 07:16:10;;;;;;;57.43;28.73;;;7.50;88.30;;;;;;5003271;28;20277;-78
2023/01/02 07:18:36;;;;;;;55.73;27.83;;;7.80;87.80;;;;;;5004329;28;20209;-79
2023/01/02 07:21:03;;;;;;;59.50;26.77;;;8.10;87.30;;;;;;5003106;28;20272;-78
2023/01/02 07:23:29;;;;;;;61.40;29.27;;;8.50;86.40;;;;;;5004301;28;20196;-78
2023/01/02 07:25:57;;;;;;;63.13;28.73;;;8.80;85.50;;;;;;5004082;28;20562;-77
2023/01/02 07:28:24;;;;;;;58.43;30.17;;;9.10;84.30;;;;;;5001828;28;20184;-77
2023/01/02 07:30:49;;;;;;;71.93;30.73;;;9.50;83.70;;;;;;5008407;28;20185;-77
2023/01/02 07:33:16;;;;;;;73.50;32.77;;;9.80;83.20;;;;;;4997727;28;20182;-77
2023/01/02 07:35:42;;;;;;;67.67;30.87;;;10.20;82.60;;;;;;5000229;28;20189;-78
2023/01/02 07:38:09;;;;;;;73.60;33.77;;;10.60;81.40;;;;;;4983736;28;20724;-78
2023/01/02 07:40:34;;;;;;;65.47;31.60;;;10.90;80.60;;;;;;5004012;28;20182;-78
2023/01/02 07:43:00;;;;;;;70.88;32.22;;;11.30;79.10;;;;;;5019572;28;20208;-77
2023/01/02 07:45:26;;;;;;;61.53;30.90;;;11.60;78.40;;;;;;5008026;28;20447;-78
2023/01/02 07:47:51;;;;;;;63.63;29.73;;;12.00;77.90;;;;;;5007561;28;20267;-78
2023/01/02 07:50:17;;;;;;;70.70;30.70;;;12.20;74.80;;;;;;5005667;28;20378;-77
2023/01/02 07:52:43;;;;;;;56.47;29.70;;;12.30;73.30;;;;;;5001105;28;20269;-78
2023/01/02 07:55:09;;;;;;;59.30;30.27;;;12.50;72.70;;;;;;5003749;28;20181;-78
2023/01/02 07:57:35;;;;;;;50.80;28.88;;;12.70;74.40;;;;;;4999886;28;20177;-78
2023/01/02 08:00:01;;;;;;;60.03;29.63;;;13.10;75.00;;;;;;5010766;28;20191;-75
2023/01/02 08:02:26;;;;;;;48.60;26.98;;;13.40;74.30;;;;;;5005620;28;20220;-74
2023/01/02 08:04:52;;;;;;;48.55;27.02;;;13.70;73.00;;;;;;5007650;28;20181;-74
2023/01/02 08:07:18;;;;;;;41.83;24.10;;;14.00;72.00;;;;;;5007010;28;20244;-74
2023/01/02 08:09:44;;;;;;;42.25;22.73;;;14.20;68.90;;;;;;5007079;28;20208;-74
2023/01/02 08:12:10;;;;;;;38.50;19.83;;;14.20;68.00;;;;;;5004749;28;20185;-74
2023/01/02 08:14:36;;;;;;;39.60;21.67;;;14.50;71.50;;;;;;5007233;28;20181;-74
2023/01/02 08:17:01;;;;;;;42.67;21.40;;;14.80;68.90;;;;;;5006085;28;20177;-74
2023/01/02 08:19:27;;;;;;;36.38;20.83;;;15.00;68.00;;;;;;5007130;28;20181;-73
2023/01/02 08:21:53;;;;;;;36.72;22.20;;;15.10;68.30;;;;;;5005765;28;20217;-73
2023/01/02 08:24:18;;;;;;;38.63;21.95;;;15.30;68.10;;;;;;5007500;28;20181;-75
2023/01/02 08:26:44;;;;;;;39.50;24.10;;;15.60;68.00;;;;;;5007654;28;20181;-75
2023/01/02 08:29:10;;;;;;;43.90;24.42;;;15.80;67.40;;;;;;5003607;28;20181;-75
2023/01/02 08:31:35;;;;;;;48.55;23.65;;;16.10;67.00;;;;;;4996961;28;20276;-74
2023/01/02 08:34:01;;;;;;;47.65;25.15;;;16.50;67.40;;;;;;5007013;28;20193;-74
2023/01/02 08:36:27;;;;;;;41.78;23.60;;;16.90;66.70;;;;;;5016906;28;20177;-73
2023/01/02 08:38:52;;;;;;;40.92;24.27;;;17.30;65.70;;;;;;5005253;28;20208;-73
2023/01/02 08:41:36;;;;;;;41.50;23.77;;;17.70;64.90;;;;;;5006627;28;20292;-74
2023/01/02 08:44:01;;;;;;;38.55;21.98;;;18.10;64.00;;;;;;5018914;28;20302;-74
2023/01/02 08:46:28;;;;;;;40.08;22.45;;;18.60;63.40;;;;;;5007102;28;20238;-73
2023/01/02 08:48:53;;;;;;;32.58;20.98;;;19.00;63.40;;;;;;5007295;28;20169;-75
2023/01/02 08:51:19;;;;;;;32.40;20.75;;;19.40;62.40;;;;;;5006570;28;20716;-75
2023/01/02 08:53:45;;;;;;;27.50;17.48;;;19.70;62.10;;;;;;5006345;28;20193;-75
2023/01/02 08:56:24;;;;;;;28.02;18.83;;;20.10;61.50;;;;;;5004771;28;20363;-77
2023/01/02 08:58:58;;;;;;;32.63;20.80;;;20.50;61.50;;;;;;5006745;28;20196;-74
2023/01/02 09:01:26;;;;;;;33.72;20.80;;;20.70;60.00;;;;;;5005670;28;20223;-74
2023/01/02 09:03:52;;;;;;;31.08;18.67;;;20.80;59.40;;;;;;4988521;28;20725;-73
2023/01/02 09:06:19;;;;;;;31.50;20.15;;;21.00;57.90;;;;;;5006557;28;20670;-73
2023/01/02 09:08:44;;;;;;;32.30;19.63;;;21.00;58.80;;;;;;5005417;28;20564;-75
2023/01/02 09:11:15;;;;;;;32.67;20.77;;;21.00;58.40;;;;;;5008330;28;20184;-74
2023/01/02 09:13:42;;;;;;;29.73;19.60;;;21.10;58.50;;;;;;5004487;28;20180;-74
2023/01/02 09:16:08;;;;;;;27.42;18.65;;;21.10;58.00;;;;;;5007647;28;20580;-74
2023/01/02 09:18:35;;;;;;;29.08;19.67;;;21.20;58.30;;;;;;5008175;28;20189;-74
2023/01/02 09:21:01;;;;;;;29.98;19.13;;;21.40;58.20;;;;;;5006459;28;20284;-74
2023/01/02 09:23:27;;;;;;;29.77;19.15;;;21.70;57.10;;;;;;5006405;28;20185;-74
2023/01/02 09:25:58;;;;;;;35.63;22.52;;;22.00;57.40;;;;;;5005941;28;20204;-74
2023/01/02 09:28:23;;;;;;;35.63;21.85;;;22.30;56.60;;;;;;4995461;28;20174;-74
2023/01/02 09:30:49;;;;;;;36.70;22.27;;;22.50;56.00;;;;;;5002147;28;20268;-79
2023/01/02 09:33:15;;;;;;;36.67;24.05;;;22.80;55.90;;;;;;4989425;28;20212;-79
2023/01/02 09:35:40;;;;;;;40.30;24.85;;;23.00;55.60;;;;;;5008300;28;20231;-79
2023/01/02 09:38:06;;;;;;;38.85;24.40;;;23.20;54.80;;;;;;5006271;28;20666;-76
2023/01/02 09:40:32;;;;;;;42.35;25.73;;;23.40;54.10;;;;;;5008391;28;20185;-76
2023/01/02 09:42:58;;;;;;;40.78;24.77;;;23.30;53.40;;;;;;5006088;28;20205;-78
2023/01/02 09:45:25;;;;;;;41.28;24.23;;;23.10;54.00;;;;;;5004121;28;20272;-77
2023/01/02 09:47:54;;;;;;;46.63;24.90;;;23.10;54.90;;;;;;5006284;28;20197;-76
2023/01/02 09:50:29;;;;;;;39.45;24.50;;;23.20;53.80;;;;;;5006096;28;20260;-78
2023/01/02 09:52:59;;;;;;;43.00;25.88;;;23.30;54.70;;;;;;5003365;28;20184;-77
2023/01/02 09:55:33;;;;;;;44.85;28.27;;;23.40;55.10;;;;;;5005291;28;20737;-76
2023/01/02 09:58:26;;;;;;;50.25;28.67;;;23.30;53.60;;;;;;4994438;28;20661;-75
2023/01/02 10:00:52;;;;;;;54.47;31.92;;;23.40;52.50;;;;;;4995700;28;20704;-81
2023/01/02 10:03:44;;;;;;;53.45;31.63;;;23.40;53.50;;;;;;5006911;28;20270;-79
2023/01/02 10:06:18;;;;;;;54.28;31.88;;;23.20;53.20;;;;;;4994419;28;20197;-80
2023/01/02 10:09:13;;;;;;;53.20;31.15;;;23.10;54.00;;;;;;5003539;28;20176;-78
2023/01/02 10:11:52;;;;;;;55.63;31.20;;;23.20;54.30;;;;;;5003957;28;20185;-79
2023/01/02 10:14:32;;;;;;;58.60;33.03;;;23.30;54.20;;;;;;5010645;28;20188;-75
2023/01/02 10:16:59;;;;;;;53.30;32.35;;;23.40;53.90;;;;;;4999645;28;20272;-74
2023/01/02 10:19:47;;;;;;;52.63;32.88;;;23.30;51.70;;;;;;5007183;28;20250;-76
2023/01/02 10:22:18;;;;;;;54.15;30.42;;;23.20;53.30;;;;;;5007450;28;20225;-80
2023/01/02 10:25:00;;;;;;;55.28;32.15;;;23.30;53.60;;;;;;5006103;28;20536;-78
2023/01/02 10:27:33;;;;;;;53.53;31.55;;;23.30;51.30;;;;;;4997894;28;20587;-83
2023/01/02 10:30:26;;;;;;;55.97;31.52;;;23.30;51.90;;;;;;4995853;28;20185;-76
2023/01/02 10:32:58;;;;;;;61.53;32.13;;;23.40;52.00;;;;;;5002789;28;20193;-75
2023/01/02 10:35:35;;;;;;;51.45;29.45;;;23.40;51.80;;;;;;5003519;28;20210;-76
2023/01/02 10:38:02;;;;;;;59.78;31.60;;;23.40;53.40;;;;;;4992784;28;20269;-76
2023/01/02 10:40:29;;;;;;;53.33;31.85;;;23.60;53.10;;;;;;5003768;28;20189;-78
2023/01/02 10:42:56;;;;;;;54.67;30.17;;;23.80;52.80;;;;;;5001531;28;20296;-78
2023/01/02 10:45:22;;;;;;;49.53;30.35;;;23.90;52.00;;;;;;5001937;28;20694;-78
2023/01/02 10:47:48;;;;;;;48.47;29.67;;;23.90;51.10;;;;;;4998710;28;20303;-76
2023/01/02 10:50:26;;;;;;;45.28;28.25;;;23.80;51.80;;;;;;5001902;28;20208;-77
2023/01/02 10:53:20;;;;;;;53.45;29.80;;;23.90;51.70;;;;;;5003817;28;20694;-77
2023/01/02 10:55:46;;;;;;;45.28;28.55;;;23.60;51.90;;;;;;4992937;28;20209;-78
2023/01/02 10:58:24;;;;;;;48.05;29.15;;;23.50;52.60;;;;;;5005169;28;20201;-76
2023/01/02 11:01:01;;;;;;;46.83;29.10;;;23.70;52.60;;;;;;5000959;28;20180;-73
2023/01/02 11:03:26;;;;;;;47.97;29.10;;;23.80;52.30;;;;;;5005337;28;20196;-73
2023/01/02 11:05:55;;;;;;;44.60;28.50;;;23.80;51.30;;;;;;5003542;28;20188;-76
2023/01/02 11:08:35;;;;;;;52.20;30.63;;;23.70;52.40;;;;;;4988068;28;20288;-78
2023/01/02 11:11:01;;;;;;;45.33;26.83;;;23.60;52.20;;;;;;5004810;28;20181;-81
2023/01/02 11:13:43;;;;;;;43.88;27.98;;;23.70;53.40;;;;;;4987729;28;20752;-75
2023/01/02 11:16:11;;;;;;;42.53;27.13;;;23.90;53.60;;;;;;5006649;28;20181;-77
2023/01/02 11:18:37;;;;;;;42.85;25.85;;;24.10;51.70;;;;;;5007844;28;20189;-76
2023/01/02 11:21:05;;;;;;;50.67;29.30;;;24.40;50.90;;;;;;4996082;28;20239;-77
2023/01/02 11:23:43;;;;;;;44.33;27.15;;;24.60;51.70;;;;;;4997408;28;20234;-77
2023/01/02 11:26:21;;;;;;;47.10;28.00;;;24.60;49.70;;;;;;5008712;28;20283;-76
2023/01/02 11:28:49;;;;;;;40.88;25.63;;;24.60;49.10;;;;;;5007963;28;20192;-77
2023/01/02 11:31:17;;;;;;;42.22;26.73;;;24.60;52.20;;;;;;5008483;28;20295;-77
2023/01/02 11:33:44;;;;;;;47.63;27.70;;;24.60;51.90;;;;;;5007876;28;20196;-80
2023/01/02 11:36:14;;;;;;;41.05;25.92;;;24.60;51.70;;;;;;4995494;28;20185;-78
2023/01/02 11:38:43;;;;;;;42.38;25.30;;;24.50;50.60;;;;;;5000931;28;20267;-77
2023/01/02 11:44:51;;;;;;;37.92;23.40;;;24.30;51.10;;;;;;5017671;28;20227;-75
2023/01/02 11:47:19;;;;;;;35.80;23.88;;;24.30;50.00;;;;;;5008108;28;20189;-78
2023/01/02 11:49:48;;;;;;;39.33;24.58;;;24.30;50.40;;;;;;5009836;28;20251;-77
2023/01/02 11:52:26;;;;;;;37.25;23.17;;;24.30;52.10;;;;;;5021570;28;20620;-83
2023/01/02 11:55:05;;;;;;;35.85;23.10;;;24.20;49.80;;;;;;4998149;28;20186;-79
2023/01/02 11:57:48;;;;;;;36.35;22.83;;;24.20;50.50;;;;;;4997886;28;20584;-79
2023/01/02 12:00:17;;;;;;;37.17;22.30;;;24.20;52.10;;;;;;5017218;28;20297;-77
2023/01/02 12:02:45;;;;;;;40.40;24.65;;;24.20;50.70;;;;;;4992189;28;20205;-79
2023/01/02 12:05:35;;;;;;;36.72;23.65;;;23.80;50.30;;;;;;5018471;28;20177;-78
2023/01/02 12:08:15;;;;;;;40.15;23.95;;;23.50;50.30;;;;;;5007572;28;20279;-79
2023/01/02 12:11:28;;;;;;;32.78;21.70;;;23.30;50.60;;;;;;5016360;28;20184;-79
2023/01/02 12:14:17;;;;;;;29.92;20.42;;;23.50;51.10;;;;;;4955929;28;20182;-79
2023/01/02 12:17:01;;;;;;;32.65;21.63;;;23.50;51.60;;;;;;4940930;28;20241;-79
2023/01/02 12:19:57;;;;;;;33.75;22.30;;;23.10;51.00;;;;;;4942665;28;20290;-79
2023/01/02 12:22:38;;;;;;;29.90;19.88;;;22.70;51.60;;;;;;4947246;28;20342;-77
2023/01/02 12:25:27;;;;;;;30.65;21.13;;;22.70;51.90;;;;;;4934944;29;20262;-79
2023/01/02 12:28:00;;;;;;;26.25;18.35;;;22.60;51.70;;;;;;4946123;28;20195;-78
2023/01/02 12:30:31;;;;;;;31.92;19.23;;;22.70;52.80;;;;;;4946778;28;20209;-78
2023/01/02 12:33:15;;;;;;;29.45;18.90;;;22.70;54.20;;;;;;4945017;29;20186;-78
2023/01/02 12:36:03;;;;;;;35.15;21.38;;;22.80;51.60;;;;;;4933783;29;20194;-78
2023/01/02 12:38:50;;;;;;;35.30;21.13;;;22.90;51.90;;;;;;4946388;29;20700;-79
2023/01/02 12:41:37;;;;;;;33.42;21.30;;;22.60;52.50;;;;;;4935332;29;20279;-78
2023/01/02 12:44:15;;;;;;;33.40;22.35;;;22.60;52.60;;;;;;4976484;28;20184;-78
2023/01/02 12:47:05;;;;;;;38.80;22.95;;;22.40;53.40;;;;;;5007374;28;20220;-77
2023/01/02 12:49:43;;;;;;;34.42;22.73;;;22.20;53.20;;;;;;4996249;28;20232;-77
2023/01/02 12:52:27;;;;;;;40.55;25.75;;;22.20;52.60;;;;;;5007907;28;20208;-79
2023/01/02 12:55:21;;;;;;;40.35;24.20;;;22.10;52.70;;;;;;5007663;28;20220;-78
2023/01/02 12:58:16;;;;;;;36.22;23.70;;;22.10;52.80;;;;;;4946572;28;20210;-78
2023/01/02 13:01:09;;;;;;;36.13;23.73;;;22.20;53.40;;;;;;4933532;29;20202;-78